createdAt,value
2022-08-26T00:01:59.457Z,4.30
2022-08-26T00:04:27.402Z,3.95
2022-08-26T00:06:55.725Z,4.32
2022-08-26T00:09:23.543Z,4.10
2022-08-26T00:11:52.114Z,4.30
2022-08-26T00:14:19.099Z,4.32
2022-08-26T00:16:49.027Z,7.15
2022-08-26T00:19:17.823Z,4.63
2022-08-26T00:21:45.359Z,4.50
2022-08-26T00:24:13.331Z,4.80
2022-08-26T00:26:41.376Z,4.13
2022-08-26T00:29:09.486Z,4.95
2022-08-26T00:31:37.032Z,4.70
2022-08-26T00:34:05.590Z,4.57
2022-08-26T00:36:32.658Z,4.75
2022-08-26T00:38:59.934Z,4.78
2022-08-26T00:41:28.911Z,4.65
2022-08-26T00:43:55.904Z,4.72
2022-08-26T00:46:29.220Z,4.75
2022-08-26T00:49:03.620Z,4.10
2022-08-26T00:51:32.266Z,4.93
2022-08-26T00:54:02.465Z,4.63
2022-08-26T00:56:36.719Z,4.63
2022-08-26T00:59:06.650Z,4.10
2022-08-26T01:01:34.004Z,4.65
2022-08-26T01:04:02.183Z,4.93
2022-08-26T01:06:29.868Z,4.47
2022-08-26T01:08:58.924Z,4.60
2022-08-26T01:11:26.376Z,4.43
2022-08-26T01:13:56.282Z,4.57
2022-08-26T01:16:25.770Z,4.95
2022-08-26T01:18:54.902Z,4.70
2022-08-26T01:21:28.542Z,5.05
2022-08-26T01:23:58.822Z,4.57
2022-08-26T01:26:30.335Z,4.97
2022-08-26T01:29:00.256Z,4.55
2022-08-26T01:31:31.171Z,5.05
2022-08-26T01:34:05.550Z,4.88
2022-08-26T01:36:33.172Z,4.60
2022-08-26T01:39:01.582Z,4.70
2022-08-26T01:41:34.220Z,4.57
2022-08-26T01:44:03.207Z,5.18
2022-08-26T01:46:31.734Z,4.90
2022-08-26T01:49:01.844Z,4.60
2022-08-26T01:51:31.683Z,5.10
2022-08-26T01:54:00.079Z,4.63
2022-08-26T01:56:33.389Z,5.22
2022-08-26T01:59:07.855Z,5.00
2022-08-26T02:01:36.529Z,4.87
2022-08-26T02:04:10.589Z,4.75
2022-08-26T02:06:38.970Z,5.05
2022-08-26T02:09:07.525Z,4.07
2022-08-26T02:11:36.834Z,4.80
2022-08-26T02:14:08.424Z,4.53
2022-08-26T02:16:42.151Z,4.47
2022-08-26T02:21:46.035Z,4.57
2022-08-26T02:24:20.920Z,4.68
2022-08-26T02:26:49.619Z,4.47
2022-08-26T02:29:23.721Z,4.70
2022-08-26T02:31:51.237Z,4.53
2022-08-26T02:34:21.862Z,4.50
2022-08-26T02:36:49.538Z,4.75
2022-08-26T02:39:22.269Z,4.50
2022-08-26T02:41:50.868Z,4.85
2022-08-26T02:44:17.917Z,4.43
2022-08-26T02:46:47.020Z,4.65
2022-08-26T02:49:14.481Z,4.97
2022-08-26T02:51:41.372Z,4.78
2022-08-26T02:54:10.122Z,4.45
2022-08-26T02:56:37.857Z,4.70
2022-08-26T02:59:06.299Z,4.88
2022-08-26T03:01:34.814Z,5.20
2022-08-26T03:04:05.058Z,4.88
2022-08-26T03:06:32.774Z,4.75
2022-08-26T03:08:59.655Z,4.90
2022-08-26T03:11:30.873Z,5.10
2022-08-26T03:14:01.813Z,4.35
2022-08-26T03:16:34.423Z,4.45
2022-08-26T03:19:02.467Z,4.60
2022-08-26T03:21:30.803Z,5.22
2022-08-26T03:23:58.686Z,4.85
2022-08-26T03:26:27.319Z,4.63
2022-08-26T03:29:13.575Z,5.10
2022-08-26T03:31:42.469Z,4.75
2022-08-26T03:34:09.746Z,4.90
2022-08-26T03:36:38.824Z,5.00
2022-08-26T03:39:10.357Z,4.57
2022-08-26T03:41:38.133Z,4.85
2022-08-26T03:44:06.165Z,4.78
2022-08-26T03:46:34.162Z,4.70
2022-08-26T03:49:06.020Z,4.75
2022-08-26T03:51:35.589Z,5.10
2022-08-26T03:54:06.709Z,5.57
2022-08-26T03:56:36.762Z,5.50
2022-08-26T03:59:05.297Z,4.90
2022-08-26T04:01:35.473Z,4.97
2022-08-26T04:04:04.412Z,5.00
2022-08-26T04:06:35.737Z,5.18
2022-08-26T04:09:05.566Z,5.32
2022-08-26T04:11:34.608Z,5.05
2022-08-26T04:14:07.564Z,4.95
2022-08-26T04:16:36.049Z,4.93
2022-08-26T04:19:04.463Z,4.65
2022-08-26T04:21:31.542Z,5.18
2022-08-26T04:23:58.470Z,4.70
2022-08-26T04:26:26.172Z,4.70
2022-08-26T04:28:55.000Z,4.82
2022-08-26T04:31:22.728Z,5.00
2022-08-26T04:33:50.851Z,5.07
2022-08-26T04:36:19.964Z,5.13
2022-08-26T04:38:47.530Z,5.40
2022-08-26T04:41:15.318Z,5.30
2022-08-26T04:43:43.961Z,5.00
2022-08-26T04:46:12.828Z,5.13
2022-08-26T04:48:41.192Z,5.35
2022-08-26T04:51:08.531Z,5.40
2022-08-26T04:53:38.184Z,4.97
2022-08-26T04:56:05.720Z,5.10
2022-08-26T04:58:34.723Z,5.20
2022-08-26T05:01:01.955Z,5.57
2022-08-26T05:03:30.470Z,5.32
2022-08-26T05:05:58.668Z,5.25
2022-08-26T05:08:26.229Z,5.72
2022-08-26T05:10:56.529Z,5.32
2022-08-26T05:13:25.523Z,5.45
2022-08-26T05:15:53.039Z,5.70
2022-08-26T05:18:23.086Z,5.75
2022-08-26T05:20:54.422Z,5.60
2022-08-26T05:23:23.209Z,5.57
2022-08-26T05:25:57.018Z,6.00
2022-08-26T05:28:29.803Z,6.18
2022-08-26T05:30:57.159Z,6.03
2022-08-26T05:33:24.606Z,6.13
2022-08-26T05:35:51.670Z,5.65
2022-08-26T05:38:21.369Z,6.13
2022-08-26T05:40:52.960Z,5.60
2022-08-26T05:43:20.864Z,5.68
2022-08-26T05:45:50.542Z,5.47
2022-08-26T05:48:22.853Z,5.70
2022-08-26T05:50:53.339Z,5.47
2022-08-26T05:53:22.138Z,5.65
2022-08-26T05:55:53.197Z,5.53
2022-08-26T05:58:22.517Z,5.75
2022-08-26T06:01:00.379Z,5.88
2022-08-26T06:03:27.517Z,6.13
2022-08-26T06:05:54.647Z,5.63
2022-08-26T06:08:22.108Z,5.78
2022-08-26T06:10:51.995Z,6.25
2022-08-26T06:13:21.424Z,6.28
2022-08-26T06:15:50.545Z,6.45
2022-08-26T06:18:22.407Z,6.00
2022-08-26T06:20:58.059Z,6.80
2022-08-26T06:23:45.883Z,6.40
2022-08-26T06:26:13.728Z,6.57
2022-08-26T06:28:40.869Z,5.60
2022-08-26T06:31:12.849Z,6.13
2022-08-26T06:33:41.420Z,5.88
2022-08-26T06:36:08.973Z,5.88
2022-08-26T06:38:36.459Z,5.53
2022-08-26T06:41:03.679Z,5.45
2022-08-26T06:43:30.826Z,6.00
2022-08-26T06:46:02.204Z,5.95
2022-08-26T06:48:32.522Z,6.45
2022-08-26T06:51:07.375Z,6.10
2022-08-26T06:53:34.355Z,5.78
2022-08-26T06:56:03.920Z,5.72
2022-08-26T06:58:31.061Z,6.13
2022-08-26T07:01:03.767Z,7.07
2022-08-26T07:03:39.765Z,6.10
2022-08-26T07:06:11.931Z,5.80
2022-08-26T07:08:39.124Z,6.18
2022-08-26T07:11:07.718Z,6.47
2022-08-26T07:13:37.700Z,6.30
2022-08-26T07:16:05.486Z,5.93
2022-08-26T07:18:34.713Z,6.10
2022-08-26T07:21:02.740Z,5.88
2022-08-26T07:23:31.922Z,5.72
2022-08-26T07:25:58.985Z,5.63
2022-08-26T07:28:26.165Z,6.50
2022-08-26T07:30:53.236Z,6.35
2022-08-26T07:33:20.741Z,6.70
2022-08-26T07:35:47.963Z,6.50
2022-08-26T07:38:14.990Z,6.55
2022-08-26T07:40:43.586Z,7.00
2022-08-26T07:43:11.115Z,7.15
2022-08-26T07:45:38.365Z,6.97
2022-08-26T07:48:06.156Z,6.63
2022-08-26T07:50:50.052Z,6.40
2022-08-26T07:55:49.371Z,6.78
2022-08-26T07:58:17.273Z,6.88
2022-08-26T08:00:44.946Z,7.30
2022-08-26T08:03:12.311Z,6.90
2022-08-26T08:05:41.491Z,7.07
2022-08-26T08:08:26.910Z,7.05
2022-08-26T08:10:57.443Z,6.75
2022-08-26T08:13:25.484Z,6.35
2022-08-26T08:15:52.601Z,6.45
2022-08-26T08:18:23.525Z,7.20
2022-08-26T08:21:04.840Z,6.50
2022-08-26T08:23:34.164Z,7.05
2022-08-26T08:26:05.048Z,6.72
2022-08-26T08:28:33.378Z,6.85
2022-08-26T08:31:02.292Z,6.68
2022-08-26T08:33:30.786Z,6.97
2022-08-26T08:35:58.194Z,7.13
2022-08-26T08:38:26.542Z,7.13
2022-08-26T08:40:53.809Z,6.88
2022-08-26T08:43:37.452Z,7.80
2022-08-26T08:46:10.435Z,8.63
2022-08-26T08:48:41.425Z,9.43
2022-08-26T08:51:19.155Z,8.77
2022-08-26T08:53:49.733Z,8.05
2022-08-26T08:56:29.269Z,8.20
2022-08-26T08:59:07.282Z,7.93
2022-08-26T09:01:47.626Z,9.35
2022-08-26T09:04:47.217Z,8.70
2022-08-26T09:07:19.919Z,9.13
2022-08-26T09:09:52.855Z,8.88
2022-08-26T09:12:29.284Z,9.80
2022-08-26T09:15:02.583Z,9.30
2022-08-26T09:17:41.445Z,9.70
2022-08-26T09:20:18.461Z,9.80
2022-08-26T09:22:46.122Z,8.80
2022-08-26T09:25:15.479Z,8.77
2022-08-26T09:27:46.015Z,8.50
2022-08-26T09:30:25.364Z,9.13
2022-08-26T09:32:59.177Z,11.02
2022-08-26T09:35:31.034Z,13.60
2022-08-26T09:37:59.013Z,13.00
2022-08-26T09:40:30.389Z,12.73
2022-08-26T09:43:16.133Z,12.75
2022-08-26T09:45:58.492Z,13.70
2022-08-26T09:48:31.874Z,14.75
2022-08-26T09:51:04.357Z,13.02
2022-08-26T09:53:34.415Z,12.27
2022-08-26T09:56:16.404Z,12.82
2022-08-26T09:58:45.391Z,12.38
2022-08-26T10:01:30.097Z,11.77
2022-08-26T10:04:06.976Z,11.10
2022-08-26T10:06:39.436Z,11.57
2022-08-26T10:09:09.811Z,11.63
2022-08-26T10:11:43.373Z,11.15
2022-08-26T10:14:15.969Z,11.43
2022-08-26T10:16:48.668Z,11.35
2022-08-26T10:19:20.250Z,12.00
2022-08-26T10:21:55.328Z,12.05
2022-08-26T10:24:28.395Z,11.73
2022-08-26T10:27:02.511Z,13.88
2022-08-26T10:29:35.946Z,13.52
2022-08-26T10:32:13.878Z,15.23
2022-08-26T10:34:42.587Z,15.00
2022-08-26T10:37:16.483Z,16.50
2022-08-26T10:39:57.251Z,15.00
2022-08-26T10:42:32.511Z,14.50
2022-08-26T10:45:06.030Z,14.52
2022-08-26T10:47:43.245Z,15.43
2022-08-26T10:50:10.715Z,16.02
2022-08-26T10:52:55.425Z,14.93
2022-08-26T10:55:27.546Z,13.40
2022-08-26T10:58:04.984Z,15.27
2022-08-26T11:00:56.069Z,13.57
2022-08-26T11:03:31.834Z,14.40
2022-08-26T11:06:32.074Z,14.60
2022-08-26T11:09:01.920Z,14.45
2022-08-26T11:11:52.633Z,15.40
2022-08-26T11:14:46.059Z,14.88
2022-08-26T11:17:57.656Z,15.65
2022-08-26T11:20:41.818Z,16.40
2022-08-26T11:23:38.729Z,14.82
2022-08-26T11:26:30.019Z,14.45
2022-08-26T11:29:12.082Z,15.25
2022-08-26T11:31:55.878Z,15.30
2022-08-26T11:34:52.046Z,13.20
2022-08-26T11:37:22.481Z,14.52
2022-08-26T11:39:57.017Z,16.15
2022-08-26T11:42:32.738Z,15.20
2022-08-26T11:45:05.666Z,14.23
2022-08-26T11:50:09.857Z,14.13
2022-08-26T11:52:39.274Z,11.57
2022-08-26T11:55:09.785Z,12.05
2022-08-26T11:57:47.535Z,10.68
2022-08-26T12:00:22.471Z,9.75
2022-08-26T12:02:51.039Z,11.35
2022-08-26T12:05:26.824Z,13.23
2022-08-26T12:08:04.119Z,11.57
2022-08-26T12:13:02.645Z,11.60
2022-08-26T12:15:32.617Z,13.57
2022-08-26T12:18:17.818Z,14.93
2022-08-26T12:20:54.108Z,12.32
2022-08-26T12:23:25.795Z,13.65
2022-08-26T12:26:07.557Z,14.65
2022-08-26T12:28:43.989Z,14.30
2022-08-26T12:31:12.019Z,14.48
2022-08-26T12:33:39.228Z,12.52
2022-08-26T12:36:06.773Z,15.15
2022-08-26T12:38:35.534Z,14.32
2022-08-26T12:41:02.807Z,15.00
2022-08-26T12:43:40.711Z,13.88
2022-08-26T12:46:11.009Z,14.30
2022-08-26T12:48:41.606Z,15.93
2022-08-26T12:51:22.277Z,14.02
2022-08-26T12:53:51.475Z,11.05
2022-08-26T12:56:25.217Z,11.45
2022-08-26T12:59:07.957Z,10.20
2022-08-26T13:01:44.022Z,15.55
2022-08-26T13:04:38.663Z,15.25
2022-08-26T13:07:21.727Z,12.93
2022-08-26T13:09:51.394Z,14.10
2022-08-26T13:12:30.552Z,13.10
2022-08-26T13:14:59.092Z,12.48
2022-08-26T13:17:29.127Z,13.20
2022-08-26T13:20:01.257Z,14.48
2022-08-26T13:22:30.658Z,16.88
2022-08-26T13:24:59.139Z,17.15
2022-08-26T13:27:27.371Z,18.20
2022-08-26T13:29:57.170Z,10.40
2022-08-26T13:32:27.166Z,7.28
2022-08-26T13:35:10.336Z,8.30
2022-08-26T13:37:37.397Z,10.80
2022-08-26T13:40:07.782Z,9.95
2022-08-26T13:42:35.181Z,10.23
2022-08-26T13:45:03.320Z,9.88
2022-08-26T13:47:30.790Z,10.18
2022-08-26T13:49:58.066Z,10.10
2022-08-26T13:52:30.383Z,9.50
2022-08-26T13:54:58.039Z,9.70
2022-08-26T13:57:28.099Z,10.07
2022-08-26T13:59:58.172Z,10.32
2022-08-26T14:02:27.061Z,11.07
2022-08-26T14:04:55.489Z,11.52
2022-08-26T14:07:23.136Z,12.70
2022-08-26T14:09:50.650Z,11.98
2022-08-26T14:12:18.312Z,11.75
2022-08-26T14:14:47.021Z,10.68
2022-08-26T14:17:18.323Z,11.05
2022-08-26T14:19:47.572Z,10.60
2022-08-26T14:22:17.485Z,9.52
2022-08-26T14:24:45.055Z,9.05
2022-08-26T14:27:12.247Z,9.07
2022-08-26T14:29:40.418Z,9.50
2022-08-26T14:32:12.452Z,8.98
2022-08-26T14:34:41.772Z,9.35
2022-08-26T14:37:11.462Z,9.30
2022-08-26T14:39:40.645Z,10.20
2022-08-26T14:42:09.222Z,9.25
2022-08-26T14:44:37.247Z,9.50
2022-08-26T14:47:07.892Z,9.73
2022-08-26T14:49:37.538Z,12.80
2022-08-26T14:52:06.788Z,14.05
2022-08-26T14:54:35.553Z,14.63
2022-08-26T14:57:05.780Z,14.27
2022-08-26T14:59:34.776Z,14.88
2022-08-26T15:02:02.413Z,13.23
2022-08-26T15:04:29.924Z,13.88
2022-08-26T15:07:00.128Z,13.27
2022-08-26T15:09:29.196Z,12.95
2022-08-26T15:11:56.638Z,13.10
2022-08-26T15:14:24.421Z,12.23
2022-08-26T15:16:54.077Z,11.73
2022-08-26T15:19:22.674Z,12.55
2022-08-26T15:21:51.130Z,11.93
2022-08-26T15:24:23.374Z,12.32
2022-08-26T15:26:51.420Z,11.73
2022-08-26T15:29:18.889Z,11.70
2022-08-26T15:31:46.653Z,11.00
2022-08-26T15:34:16.765Z,11.98
2022-08-26T15:36:46.527Z,11.75
2022-08-26T15:39:15.683Z,12.63
2022-08-26T15:41:44.246Z,13.10
2022-08-26T15:44:12.487Z,13.93
2022-08-26T15:46:39.637Z,13.20
2022-08-26T15:49:07.428Z,13.52
2022-08-26T15:51:45.762Z,14.48
2022-08-26T15:54:14.336Z,16.02
2022-08-26T15:56:41.577Z,15.57
2022-08-26T15:59:12.485Z,16.23
2022-08-26T16:01:40.308Z,16.90
2022-08-26T16:04:07.669Z,17.42
2022-08-26T16:06:37.075Z,18.75
2022-08-26T16:09:05.617Z,18.92
2022-08-26T16:11:33.882Z,21.48
2022-08-26T16:14:02.543Z,22.55
2022-08-26T16:16:32.948Z,24.17
2022-08-26T16:19:04.389Z,23.60
2022-08-26T16:21:32.753Z,25.25
2022-08-26T16:24:01.519Z,25.65
2022-08-26T16:26:33.411Z,26.35
2022-08-26T16:29:04.919Z,27.33
2022-08-26T16:31:35.505Z,28.42
2022-08-26T16:34:04.547Z,27.77
2022-08-26T16:36:35.198Z,28.35
2022-08-26T16:39:06.323Z,28.48
2022-08-26T16:41:34.095Z,29.08
2022-08-26T16:44:03.233Z,28.85
2022-08-26T16:46:31.144Z,28.52
2022-08-26T16:49:04.384Z,28.23
2022-08-26T16:51:37.758Z,27.27
2022-08-26T16:54:07.795Z,27.65
2022-08-26T16:56:36.909Z,26.70
2022-08-26T16:59:05.514Z,27.65
2022-08-26T17:01:33.175Z,26.52
2022-08-26T17:04:02.241Z,26.92
2022-08-26T17:06:30.123Z,26.65
2022-08-26T17:08:59.441Z,26.35
2022-08-26T17:11:27.516Z,25.67
2022-08-26T17:13:56.127Z,25.42
2022-08-26T17:16:27.023Z,25.05
2022-08-26T17:18:55.552Z,25.63
2022-08-26T17:21:25.399Z,25.90
2022-08-26T17:23:54.903Z,25.25
2022-08-26T17:26:22.017Z,24.73
2022-08-26T17:28:49.559Z,24.80
2022-08-26T17:31:16.887Z,24.70
2022-08-26T17:33:47.632Z,22.55
2022-08-26T17:36:16.250Z,22.63
2022-08-26T17:38:44.746Z,20.88
2022-08-26T17:41:14.870Z,22.17
2022-08-26T17:43:42.248Z,20.38
2022-08-26T17:46:11.161Z,20.65
2022-08-26T17:48:39.468Z,19.23
2022-08-26T17:51:08.456Z,19.30
2022-08-26T17:53:35.649Z,19.70
2022-08-26T17:56:06.097Z,18.02
2022-08-26T17:58:35.880Z,18.63
2022-08-26T18:01:05.838Z,17.90
2022-08-26T18:03:33.951Z,18.08
2022-08-26T18:06:02.140Z,17.42
2022-08-26T18:08:29.245Z,16.73
2022-08-26T18:10:56.489Z,16.75
2022-08-26T18:13:25.325Z,16.75
2022-08-26T18:15:52.522Z,16.00
2022-08-26T18:18:20.103Z,14.13
2022-08-26T18:20:47.171Z,14.15
2022-08-26T18:23:19.907Z,14.27
2022-08-26T18:25:47.021Z,13.95
2022-08-26T18:28:14.225Z,12.95
2022-08-26T18:30:44.122Z,13.77
2022-08-26T18:33:12.334Z,13.40
2022-08-26T18:35:40.207Z,13.35
2022-08-26T18:38:11.075Z,13.73
2022-08-26T18:40:39.795Z,13.32
2022-08-26T18:43:06.949Z,14.18
2022-08-26T18:45:34.753Z,13.48
2022-08-26T18:48:04.156Z,13.70
2022-08-26T18:50:31.620Z,13.98
2022-08-26T18:52:58.888Z,13.57
2022-08-26T18:55:26.124Z,13.57
2022-08-26T18:57:53.145Z,12.95
2022-08-26T19:03:08.286Z,13.80
2022-08-26T19:05:46.260Z,13.77
2022-08-26T19:08:13.616Z,13.23
2022-08-26T19:10:41.874Z,14.23
2022-08-26T19:13:09.856Z,12.95
2022-08-26T19:15:38.357Z,13.75
2022-08-26T19:18:07.756Z,13.30
2022-08-26T19:20:37.698Z,12.80
2022-08-26T19:23:10.510Z,13.60
2022-08-26T19:28:18.759Z,12.80
2022-08-26T19:30:51.328Z,13.23
2022-08-26T19:33:22.747Z,13.52
2022-08-26T19:35:51.201Z,13.82
2022-08-26T19:38:18.936Z,14.48
2022-08-26T19:40:46.199Z,13.52
2022-08-26T19:43:13.720Z,13.82
2022-08-26T19:45:42.511Z,13.48
2022-08-26T19:48:11.320Z,13.40
2022-08-26T19:50:39.979Z,13.57
2022-08-26T19:53:07.138Z,12.30
2022-08-26T19:55:34.725Z,13.50
2022-08-26T19:58:01.806Z,12.90
2022-08-26T20:00:31.807Z,13.18
2022-08-26T20:02:59.646Z,13.02
2022-08-26T20:05:27.399Z,12.73
2022-08-26T20:07:56.160Z,13.48
2022-08-26T20:10:24.568Z,13.18
2022-08-26T20:12:53.189Z,12.35
2022-08-26T20:15:22.552Z,12.38
2022-08-26T20:17:51.473Z,12.88
2022-08-26T20:20:37.649Z,12.52
2022-08-26T20:23:06.246Z,12.45
2022-08-26T20:25:34.206Z,13.15
2022-08-26T20:28:02.945Z,12.10
2022-08-26T20:30:30.484Z,13.20
2022-08-26T20:32:58.847Z,12.30
2022-08-26T20:35:26.508Z,12.10
2022-08-26T20:37:53.648Z,12.40
2022-08-26T20:40:22.756Z,12.35
2022-08-26T20:42:50.749Z,12.15
2022-08-26T20:45:18.133Z,12.35
2022-08-26T20:47:45.202Z,11.57
2022-08-26T20:50:12.430Z,11.80
2022-08-26T20:52:39.872Z,12.43
2022-08-26T20:55:08.070Z,12.18
2022-08-26T20:57:37.384Z,12.23
2022-08-26T21:00:07.251Z,12.63
2022-08-26T21:02:35.709Z,13.05
2022-08-26T21:05:03.317Z,13.10
2022-08-26T21:07:30.649Z,12.63
2022-08-26T21:09:58.726Z,12.48
2022-08-26T21:12:26.904Z,11.95
2022-08-26T21:14:56.857Z,12.38
2022-08-26T21:17:25.651Z,13.27
2022-08-26T21:19:53.824Z,12.77
2022-08-26T21:22:21.597Z,12.48
2022-08-26T21:24:48.631Z,11.63
2022-08-26T21:27:15.924Z,12.23
2022-08-26T21:29:48.586Z,12.13
2022-08-26T21:32:20.925Z,12.70
2022-08-26T21:34:48.108Z,12.25
2022-08-26T21:37:16.352Z,12.05
2022-08-26T21:39:44.519Z,12.48
2022-08-26T21:42:11.647Z,11.75
2022-08-26T21:44:39.035Z,11.65
2022-08-26T21:47:07.368Z,12.27
2022-08-26T21:49:36.147Z,12.10
2022-08-26T21:52:04.832Z,11.57
2022-08-26T21:54:32.146Z,11.77
2022-08-26T21:56:59.100Z,12.07
2022-08-26T21:59:26.163Z,11.40
2022-08-26T22:01:54.659Z,11.70
2022-08-26T22:04:21.849Z,11.02
2022-08-26T22:06:53.079Z,11.45
2022-08-26T22:09:22.454Z,11.00
2022-08-26T22:11:49.660Z,10.95
2022-08-26T22:14:17.817Z,11.13
2022-08-26T22:16:50.234Z,12.20
2022-08-26T22:19:18.281Z,11.00
2022-08-26T22:21:45.441Z,11.65
2022-08-26T22:24:14.016Z,11.13
2022-08-26T22:26:55.969Z,11.38
2022-08-26T22:29:25.108Z,10.82
2022-08-26T22:31:52.536Z,16.20
2022-08-26T22:34:21.247Z,30.20
2022-08-26T22:36:49.367Z,11.35
2022-08-26T22:39:20.482Z,11.63
2022-08-26T22:41:48.646Z,12.13
2022-08-26T22:44:16.433Z,11.38
2022-08-26T22:46:43.856Z,11.07
2022-08-26T22:49:12.688Z,11.93
2022-08-26T22:51:39.703Z,11.63
2022-08-26T22:54:06.749Z,11.63
2022-08-26T22:56:35.597Z,10.73
2022-08-26T22:59:02.792Z,10.80
2022-08-26T23:01:30.748Z,11.73
2022-08-26T23:03:57.867Z,10.85
2022-08-26T23:06:47.274Z,10.75
2022-08-26T23:09:18.075Z,11.00
2022-08-26T23:11:47.980Z,10.35
2022-08-26T23:14:16.449Z,11.82
2022-08-26T23:16:43.655Z,10.77
2022-08-26T23:19:13.029Z,10.32
2022-08-26T23:21:40.395Z,10.70
2022-08-26T23:24:08.801Z,10.73
2022-08-26T23:26:36.236Z,10.32
2022-08-26T23:29:06.533Z,10.52
2022-08-26T23:31:34.492Z,10.77
2022-08-26T23:34:20.425Z,9.80
2022-08-26T23:36:47.689Z,11.13
2022-08-26T23:39:15.177Z,10.75
2022-08-26T23:41:43.270Z,10.30
2022-08-26T23:44:12.495Z,10.48
2022-08-26T23:46:39.542Z,10.48
2022-08-26T23:49:06.698Z,9.13
2022-08-26T23:51:52.487Z,9.85
2022-08-26T23:54:19.805Z,10.75
2022-08-26T23:56:46.969Z,9.52
2022-08-26T23:59:15.708Z,9.80
